createdAt,value
2023-12-10T00:00:28.687Z,2.02
2023-12-10T00:01:01.521Z,2.02
2023-12-10T00:01:34.313Z,2.02
2023-12-10T00:02:07.227Z,2.02
2023-12-10T00:02:39.852Z,2.03
2023-12-10T00:03:12.502Z,2.03
2023-12-10T00:03:45.522Z,2.04
2023-12-10T00:04:18.177Z,2.04
2023-12-10T00:04:51.735Z,2.04
2023-12-10T00:05:24.359Z,2.04
2023-12-10T00:06:04.402Z,2.04
2023-12-10T00:06:43.706Z,2.04
2023-12-10T00:07:16.323Z,2.05
2023-12-10T00:07:48.943Z,2.05
2023-12-10T00:08:21.735Z,2.06
2023-12-10T00:08:54.379Z,2.08
2023-12-10T00:09:27.532Z,2.08
2023-12-10T00:10:00.215Z,2.09
2023-12-10T00:10:32.845Z,2.10
2023-12-10T00:11:05.576Z,2.10
2023-12-10T00:11:38.242Z,2.11
2023-12-10T00:12:10.882Z,2.13
2023-12-10T00:12:43.523Z,2.13
2023-12-10T00:13:16.349Z,2.14
2023-12-10T00:13:48.922Z,2.15
2023-12-10T00:14:21.553Z,2.16
2023-12-10T00:14:55.997Z,2.17
2023-12-10T00:15:28.673Z,2.18
2023-12-10T00:16:01.327Z,2.18
2023-12-10T00:16:33.954Z,2.19
2023-12-10T00:17:06.556Z,2.20
2023-12-10T00:17:39.258Z,2.20
2023-12-10T00:18:12.032Z,2.21
2023-12-10T00:18:45.058Z,2.22
2023-12-10T00:19:18.066Z,2.23
2023-12-10T00:19:50.770Z,2.23
2023-12-10T00:20:23.816Z,2.25
2023-12-10T00:20:56.501Z,2.26
2023-12-10T00:21:29.196Z,2.27
2023-12-10T00:22:02.101Z,2.27
2023-12-10T00:22:34.705Z,2.28
2023-12-10T00:23:08.923Z,2.29
2023-12-10T00:23:49.043Z,2.29
2023-12-10T00:24:23.462Z,2.29
2023-12-10T00:24:56.235Z,2.30
2023-12-10T00:25:32.306Z,2.30
2023-12-10T00:26:05.138Z,2.31
2023-12-10T00:26:37.736Z,2.32
2023-12-10T00:27:11.038Z,2.31
2023-12-10T00:27:43.905Z,2.31
2023-12-10T00:28:16.553Z,2.31
2023-12-10T00:28:50.241Z,2.32
2023-12-10T00:29:22.880Z,2.32
2023-12-10T00:29:55.537Z,2.32
2023-12-10T00:30:31.030Z,2.33
2023-12-10T00:31:09.321Z,2.32
2023-12-10T00:31:45.590Z,2.32
2023-12-10T00:32:18.389Z,2.32
2023-12-10T00:32:51.028Z,2.32
2023-12-10T00:33:24.013Z,2.32
2023-12-10T00:33:57.093Z,2.32
2023-12-10T00:34:30.039Z,2.32
2023-12-10T00:35:02.711Z,2.33
2023-12-10T00:35:35.786Z,2.33
2023-12-10T00:36:09.287Z,2.33
2023-12-10T00:36:42.319Z,2.33
2023-12-10T00:37:14.914Z,2.32
2023-12-10T00:37:47.987Z,2.32
2023-12-10T00:38:21.837Z,2.32
2023-12-10T00:38:56.789Z,2.32
2023-12-10T00:39:30.191Z,2.32
2023-12-10T00:40:05.009Z,2.33
2023-12-10T00:40:37.830Z,2.33
2023-12-10T00:41:12.162Z,2.33
2023-12-10T00:41:44.915Z,2.34
2023-12-10T00:42:17.525Z,2.34
2023-12-10T00:42:50.172Z,2.34
2023-12-10T00:43:22.734Z,2.34
2023-12-10T00:43:55.321Z,2.34
2023-12-10T00:44:27.828Z,2.35
2023-12-10T00:45:00.723Z,2.35
2023-12-10T00:45:33.332Z,2.36
2023-12-10T00:46:06.704Z,2.35
2023-12-10T00:46:39.627Z,2.35
2023-12-10T00:47:12.340Z,2.36
2023-12-10T00:47:45.095Z,2.36
2023-12-10T00:48:17.854Z,2.36
2023-12-10T00:48:50.555Z,2.37
2023-12-10T00:49:23.463Z,2.37
2023-12-10T00:49:56.144Z,2.38
2023-12-10T00:50:28.968Z,2.38
2023-12-10T00:51:02.133Z,2.38
2023-12-10T00:51:34.768Z,2.39
2023-12-10T00:52:07.459Z,2.39
2023-12-10T00:52:40.214Z,2.39
2023-12-10T00:53:12.998Z,2.40
2023-12-10T00:53:45.560Z,2.40
2023-12-10T00:54:18.207Z,2.40
2023-12-10T00:54:50.947Z,2.40
2023-12-10T00:55:23.555Z,2.40
2023-12-10T00:55:56.161Z,2.40
2023-12-10T00:56:28.744Z,2.41
2023-12-10T00:57:01.748Z,2.42
2023-12-10T00:57:35.581Z,2.42
2023-12-10T00:58:08.168Z,2.42
2023-12-10T00:58:40.779Z,2.43
2023-12-10T00:59:13.428Z,2.43
2023-12-10T00:59:46.092Z,2.43
2023-12-10T01:00:19.071Z,2.43
2023-12-10T01:00:51.721Z,2.43
2023-12-10T01:01:24.337Z,2.43
2023-12-10T01:01:56.941Z,2.44
2023-12-10T01:02:30.083Z,2.44
2023-12-10T01:03:05.363Z,2.44
2023-12-10T01:03:39.596Z,2.45
2023-12-10T01:04:12.605Z,2.46
2023-12-10T01:04:45.534Z,2.47
2023-12-10T01:05:18.219Z,2.48
2023-12-10T01:05:50.849Z,2.48
2023-12-10T01:06:23.453Z,2.49
2023-12-10T01:06:56.464Z,2.49
2023-12-10T01:07:29.067Z,2.49
2023-12-10T01:08:02.172Z,2.49
2023-12-10T01:08:34.772Z,2.49
2023-12-10T01:09:07.394Z,2.50
2023-12-10T01:09:40.148Z,2.50
2023-12-10T01:10:13.072Z,2.50
2023-12-10T01:10:45.666Z,2.51
2023-12-10T01:11:18.268Z,2.52
2023-12-10T01:11:50.878Z,2.52
2023-12-10T01:12:23.597Z,2.52
2023-12-10T01:12:56.695Z,2.52
2023-12-10T01:13:29.269Z,2.53
2023-12-10T01:14:04.129Z,2.54
2023-12-10T01:14:37.698Z,2.54
2023-12-10T01:15:11.698Z,2.54
2023-12-10T01:15:44.809Z,2.55
2023-12-10T01:16:18.219Z,2.55
2023-12-10T01:16:50.891Z,2.55
2023-12-10T01:17:23.503Z,2.55
2023-12-10T01:18:02.127Z,2.55
2023-12-10T01:18:35.147Z,2.55
2023-12-10T01:19:07.836Z,2.54
2023-12-10T01:19:41.089Z,2.54
2023-12-10T01:20:14.261Z,2.53
2023-12-10T01:20:46.991Z,2.52
2023-12-10T01:21:19.632Z,2.52
2023-12-10T01:21:52.394Z,2.51
2023-12-10T01:22:25.070Z,2.51
2023-12-10T01:22:58.204Z,2.51
2023-12-10T01:23:30.824Z,2.51
2023-12-10T01:24:05.019Z,2.51
2023-12-10T01:24:37.772Z,2.50
2023-12-10T01:25:10.356Z,2.49
2023-12-10T01:25:43.895Z,2.49
2023-12-10T01:26:16.649Z,2.49
2023-12-10T01:26:49.242Z,2.49
2023-12-10T01:27:22.723Z,2.49
2023-12-10T01:27:55.505Z,2.48
2023-12-10T01:28:28.182Z,2.48
2023-12-10T01:29:00.755Z,2.47
2023-12-10T01:29:33.300Z,2.46
2023-12-10T01:30:06.469Z,2.46
2023-12-10T01:30:39.315Z,2.45
2023-12-10T01:31:12.032Z,2.45
2023-12-10T01:31:44.636Z,2.45
2023-12-10T01:32:17.343Z,2.45
2023-12-10T01:32:51.501Z,2.45
2023-12-10T01:33:24.280Z,2.45
2023-12-10T01:33:58.573Z,2.46
2023-12-10T01:34:31.623Z,2.46
2023-12-10T01:35:05.688Z,2.46
2023-12-10T01:35:38.779Z,2.46
2023-12-10T01:36:22.875Z,2.46
2023-12-10T01:36:55.419Z,2.46
2023-12-10T01:37:28.168Z,2.46
2023-12-10T01:38:00.790Z,2.46
2023-12-10T01:38:33.971Z,2.46
2023-12-10T01:39:06.492Z,2.46
2023-12-10T01:39:39.240Z,2.46
2023-12-10T01:40:13.675Z,2.46
2023-12-10T01:40:46.212Z,2.45
2023-12-10T01:41:20.035Z,2.45
2023-12-10T01:41:52.633Z,2.44
2023-12-10T01:42:25.211Z,2.43
2023-12-10T01:42:57.960Z,2.42
2023-12-10T01:43:30.501Z,2.41
2023-12-10T01:44:03.526Z,2.41
2023-12-10T01:44:36.042Z,2.41
2023-12-10T01:45:09.617Z,2.40
2023-12-10T01:45:42.351Z,2.40
2023-12-10T01:46:15.371Z,2.40
2023-12-10T01:46:48.184Z,2.39
2023-12-10T01:47:21.032Z,2.39
2023-12-10T01:47:54.353Z,2.38
2023-12-10T01:48:28.685Z,2.38
2023-12-10T01:49:01.689Z,2.38
2023-12-10T01:49:34.903Z,2.38
2023-12-10T01:50:09.942Z,2.37
2023-12-10T01:50:43.428Z,2.37
2023-12-10T01:51:16.103Z,2.37
2023-12-10T01:51:50.842Z,2.37
2023-12-10T01:52:23.515Z,2.37
2023-12-10T01:52:56.523Z,2.36
2023-12-10T01:53:29.756Z,2.36
2023-12-10T01:54:02.795Z,2.35
2023-12-10T01:54:35.757Z,2.34
2023-12-10T01:55:11.132Z,2.33
2023-12-10T01:55:45.664Z,2.33
2023-12-10T01:56:18.536Z,2.32
2023-12-10T01:56:59.919Z,2.32
2023-12-10T01:57:40.367Z,2.33
2023-12-10T01:58:13.958Z,2.33
2023-12-10T01:58:46.542Z,2.32
2023-12-10T01:59:20.870Z,2.32
2023-12-10T01:59:53.449Z,2.31
2023-12-10T02:00:27.123Z,2.31
2023-12-10T02:01:01.093Z,2.30
2023-12-10T02:01:34.660Z,2.30
2023-12-10T02:02:07.333Z,2.28
2023-12-10T02:02:41.133Z,2.27
2023-12-10T02:03:14.507Z,2.27
2023-12-10T02:03:47.503Z,2.27
2023-12-10T02:04:21.027Z,2.26
2023-12-10T02:04:55.591Z,2.25
2023-12-10T02:05:32.236Z,2.23
2023-12-10T02:06:05.154Z,2.23
2023-12-10T02:06:37.904Z,2.23
2023-12-10T02:07:10.590Z,2.22
2023-12-10T02:07:44.386Z,2.21
2023-12-10T02:08:16.944Z,2.20
2023-12-10T02:08:49.491Z,2.19
2023-12-10T02:09:22.142Z,2.19
2023-12-10T02:09:54.734Z,2.18
2023-12-10T02:10:27.341Z,2.18
2023-12-10T02:11:01.089Z,2.18
2023-12-10T02:11:33.658Z,2.17
2023-12-10T02:12:07.253Z,2.17
2023-12-10T02:12:41.142Z,2.17
2023-12-10T02:13:16.602Z,2.16
2023-12-10T02:13:50.772Z,2.16
2023-12-10T02:14:23.623Z,2.16
2023-12-10T02:14:56.186Z,2.16
2023-12-10T02:15:31.507Z,2.16
2023-12-10T02:16:04.389Z,2.16
2023-12-10T02:16:37.026Z,2.16
2023-12-10T02:17:09.653Z,2.17
2023-12-10T02:17:42.735Z,2.17
2023-12-10T02:18:19.037Z,2.16
2023-12-10T02:18:51.735Z,2.16
2023-12-10T02:19:24.681Z,2.15
2023-12-10T02:19:57.326Z,2.15
2023-12-10T02:20:29.952Z,2.15
2023-12-10T02:21:02.713Z,2.15
2023-12-10T02:21:36.651Z,2.16
2023-12-10T02:22:15.308Z,2.16
2023-12-10T02:23:13.370Z,2.16
2023-12-10T02:23:55.238Z,2.15
2023-12-10T02:24:37.244Z,2.15
2023-12-10T02:25:10.456Z,2.16
2023-12-10T02:25:43.103Z,2.17
2023-12-10T02:26:15.782Z,2.17
2023-12-10T02:26:48.921Z,2.17
2023-12-10T02:27:22.330Z,2.17
2023-12-10T02:27:55.112Z,2.17
2023-12-10T02:28:28.421Z,2.17
2023-12-10T02:29:01.281Z,2.18
2023-12-10T02:29:34.564Z,2.19
2023-12-10T02:30:07.964Z,2.20
2023-12-10T02:30:40.817Z,2.20
2023-12-10T02:31:13.409Z,2.21
2023-12-10T02:31:45.949Z,2.22
2023-12-10T02:32:18.723Z,2.22
2023-12-10T02:32:51.561Z,2.22
2023-12-10T02:33:24.296Z,2.23
2023-12-10T02:33:57.057Z,2.23
2023-12-10T02:34:29.756Z,2.23
2023-12-10T02:35:02.301Z,2.24
2023-12-10T02:35:34.835Z,2.24
2023-12-10T02:36:07.558Z,2.24
2023-12-10T02:36:40.129Z,2.25
2023-12-10T02:37:13.131Z,2.25
2023-12-10T02:37:45.867Z,2.24
2023-12-10T02:38:22.519Z,2.24
2023-12-10T02:38:55.466Z,2.24
2023-12-10T02:39:28.199Z,2.25
2023-12-10T02:40:02.205Z,2.25
2023-12-10T02:40:34.846Z,2.27
2023-12-10T02:41:07.535Z,2.27
2023-12-10T02:41:40.041Z,2.28
2023-12-10T02:42:12.649Z,2.29
2023-12-10T02:42:46.901Z,2.28
2023-12-10T02:43:21.029Z,2.29
2023-12-10T02:43:53.667Z,2.29
2023-12-10T02:44:26.252Z,2.29
2023-12-10T02:44:58.831Z,2.30
2023-12-10T02:45:31.464Z,2.30
2023-12-10T02:46:04.117Z,2.30
2023-12-10T02:46:36.807Z,2.30
2023-12-10T02:47:09.475Z,2.30
2023-12-10T02:47:42.684Z,2.31
2023-12-10T02:48:15.728Z,2.32
2023-12-10T02:48:48.517Z,2.32
2023-12-10T02:49:21.243Z,2.32
2023-12-10T02:49:53.873Z,2.33
2023-12-10T02:50:26.528Z,2.34
2023-12-10T02:50:59.142Z,2.34
2023-12-10T02:51:31.720Z,2.35
2023-12-10T02:52:04.526Z,2.35
2023-12-10T02:52:39.990Z,2.36
2023-12-10T02:53:12.596Z,2.37
2023-12-10T02:53:45.147Z,2.37
2023-12-10T02:54:17.686Z,2.38
2023-12-10T02:54:50.446Z,2.38
2023-12-10T02:55:23.004Z,2.39
2023-12-10T02:55:59.040Z,2.40
2023-12-10T02:56:32.021Z,2.40
2023-12-10T02:57:05.094Z,2.40
2023-12-10T02:57:38.284Z,2.41
2023-12-10T02:58:10.978Z,2.41
2023-12-10T02:58:43.564Z,2.41
2023-12-10T02:59:16.110Z,2.40
2023-12-10T02:59:48.651Z,2.40
2023-12-10T03:00:21.307Z,2.40
2023-12-10T03:00:55.185Z,2.40
2023-12-10T03:01:28.899Z,2.40
2023-12-10T03:02:01.815Z,2.40
2023-12-10T03:02:34.349Z,2.41
2023-12-10T03:03:06.945Z,2.41
2023-12-10T03:03:39.672Z,2.41
2023-12-10T03:04:12.445Z,2.42
2023-12-10T03:04:45.093Z,2.42
2023-12-10T03:05:18.445Z,2.41
2023-12-10T03:05:51.081Z,2.41
2023-12-10T03:06:23.697Z,2.40
2023-12-10T03:06:56.263Z,2.40
2023-12-10T03:07:28.890Z,2.40
2023-12-10T03:08:01.403Z,2.40
2023-12-10T03:08:34.023Z,2.39
2023-12-10T03:09:06.550Z,2.39
2023-12-10T03:09:39.200Z,2.39
2023-12-10T03:10:12.026Z,2.39
2023-12-10T03:10:44.559Z,2.39
2023-12-10T03:11:17.120Z,2.39
2023-12-10T03:11:49.676Z,2.39
2023-12-10T03:12:22.233Z,2.38
2023-12-10T03:12:54.972Z,2.38
2023-12-10T03:13:27.604Z,2.39
2023-12-10T03:14:00.219Z,2.39
2023-12-10T03:14:32.784Z,2.39
2023-12-10T03:15:06.133Z,2.39
2023-12-10T03:15:38.826Z,2.38
2023-12-10T03:16:11.407Z,2.38
2023-12-10T03:16:43.957Z,2.37
2023-12-10T03:17:16.492Z,2.37
2023-12-10T03:17:49.091Z,2.37
2023-12-10T03:18:21.863Z,2.37
2023-12-10T03:18:54.616Z,2.37
2023-12-10T03:19:27.397Z,2.37
2023-12-10T03:20:00.212Z,2.37
2023-12-10T03:20:32.824Z,2.37
2023-12-10T03:21:05.787Z,2.37
2023-12-10T03:21:38.406Z,2.37
2023-12-10T03:22:10.946Z,2.37
2023-12-10T03:22:43.722Z,2.37
2023-12-10T03:23:18.139Z,2.37
2023-12-10T03:23:50.719Z,2.38
2023-12-10T03:24:23.293Z,2.38
2023-12-10T03:24:55.883Z,2.38
2023-12-10T03:25:28.388Z,2.37
2023-12-10T03:26:00.931Z,2.37
2023-12-10T03:26:33.481Z,2.37
2023-12-10T03:27:06.059Z,2.38
2023-12-10T03:27:38.774Z,2.38
2023-12-10T03:28:11.376Z,2.38
2023-12-10T03:28:44.106Z,2.38
2023-12-10T03:29:16.812Z,2.38
2023-12-10T03:29:49.436Z,2.38
2023-12-10T03:30:21.958Z,2.39
2023-12-10T03:30:54.509Z,2.39
2023-12-10T03:31:27.068Z,2.40
2023-12-10T03:31:59.685Z,2.40
2023-12-10T03:32:32.578Z,2.41
2023-12-10T03:33:05.480Z,2.41
2023-12-10T03:33:38.231Z,2.41
2023-12-10T03:34:10.840Z,2.41
2023-12-10T03:34:43.689Z,2.41
2023-12-10T03:35:16.241Z,2.40
2023-12-10T03:35:48.916Z,2.40
2023-12-10T03:36:23.165Z,2.41
2023-12-10T03:36:55.975Z,2.41
2023-12-10T03:37:28.550Z,2.41
2023-12-10T03:38:01.149Z,2.41
2023-12-10T03:38:33.772Z,2.41
2023-12-10T03:39:06.433Z,2.41
2023-12-10T03:39:39.103Z,2.41
2023-12-10T03:40:12.316Z,2.41
2023-12-10T03:40:45.124Z,2.42
2023-12-10T03:41:17.755Z,2.42
2023-12-10T03:41:51.353Z,2.43
2023-12-10T03:42:24.016Z,2.43
2023-12-10T03:42:57.237Z,2.44
2023-12-10T03:43:29.813Z,2.44
2023-12-10T03:44:02.369Z,2.44
2023-12-10T03:44:35.147Z,2.45
2023-12-10T03:45:08.778Z,2.45
2023-12-10T03:45:41.416Z,2.46
2023-12-10T03:46:14.074Z,2.46
2023-12-10T03:46:46.676Z,2.46
2023-12-10T03:47:19.294Z,2.47
2023-12-10T03:47:52.281Z,2.48
2023-12-10T03:48:24.972Z,2.48
2023-12-10T03:48:57.816Z,2.48
2023-12-10T03:49:31.687Z,2.49
2023-12-10T03:50:07.486Z,2.49
2023-12-10T03:50:40.290Z,2.49
2023-12-10T03:51:12.889Z,2.49
2023-12-10T03:51:45.478Z,2.50
2023-12-10T03:52:18.063Z,2.50
2023-12-10T03:52:51.157Z,2.49
2023-12-10T03:53:23.864Z,2.49
2023-12-10T03:53:56.401Z,2.48
2023-12-10T03:54:28.989Z,2.47
2023-12-10T03:55:01.569Z,2.46
2023-12-10T03:55:34.827Z,2.46
2023-12-10T03:56:07.722Z,2.47
2023-12-10T03:56:40.440Z,2.46
2023-12-10T03:57:13.055Z,2.45
2023-12-10T03:57:46.154Z,2.46
2023-12-10T03:58:19.133Z,2.46
2023-12-10T03:58:51.938Z,2.47
2023-12-10T03:59:24.564Z,2.47
2023-12-10T03:59:57.156Z,2.48
2023-12-10T04:00:30.808Z,2.48
2023-12-10T04:01:03.496Z,2.48
2023-12-10T04:01:36.106Z,2.48
2023-12-10T04:02:09.202Z,2.48
2023-12-10T04:02:41.897Z,2.47
2023-12-10T04:03:14.685Z,2.47
2023-12-10T04:03:47.466Z,2.47
2023-12-10T04:04:20.162Z,2.46
2023-12-10T04:04:52.756Z,2.46
2023-12-10T04:05:25.475Z,2.46
2023-12-10T04:05:58.056Z,2.45
2023-12-10T04:06:30.734Z,2.45
2023-12-10T04:07:03.652Z,2.45
2023-12-10T04:07:36.266Z,2.45
2023-12-10T04:08:08.873Z,2.45
2023-12-10T04:08:41.632Z,2.44
2023-12-10T04:09:14.436Z,2.44
2023-12-10T04:09:47.032Z,2.44
2023-12-10T04:10:19.943Z,2.44
2023-12-10T04:10:52.516Z,2.44
2023-12-10T04:11:25.309Z,2.45
2023-12-10T04:11:58.285Z,2.45
2023-12-10T04:12:32.649Z,2.44
2023-12-10T04:13:05.459Z,2.44
2023-12-10T04:13:38.097Z,2.44
2023-12-10T04:14:11.133Z,2.43
2023-12-10T04:14:47.984Z,2.42
2023-12-10T04:15:20.758Z,2.42
2023-12-10T04:15:53.548Z,2.42
2023-12-10T04:16:27.518Z,2.42
2023-12-10T04:17:00.330Z,2.42
2023-12-10T04:17:32.906Z,2.43
2023-12-10T04:18:06.845Z,2.44
2023-12-10T04:18:40.292Z,2.45
2023-12-10T04:19:13.118Z,2.45
2023-12-10T04:19:45.826Z,2.45
2023-12-10T04:20:18.465Z,2.46
2023-12-10T04:20:51.056Z,2.47
2023-12-10T04:21:24.589Z,2.47
2023-12-10T04:21:57.386Z,2.47
2023-12-10T04:22:30.620Z,2.47
2023-12-10T04:23:03.986Z,2.47
2023-12-10T04:23:38.952Z,2.48
2023-12-10T04:24:11.527Z,2.48
2023-12-10T04:24:44.134Z,2.48
2023-12-10T04:25:16.763Z,2.47
2023-12-10T04:25:49.620Z,2.47
2023-12-10T04:26:23.126Z,2.47
2023-12-10T04:26:55.910Z,2.48
2023-12-10T04:27:28.599Z,2.48
2023-12-10T04:28:01.510Z,2.48
2023-12-10T04:28:34.115Z,2.49
2023-12-10T04:29:06.729Z,2.51
2023-12-10T04:29:40.137Z,2.52
2023-12-10T04:30:13.268Z,2.52
2023-12-10T04:30:46.018Z,2.53
2023-12-10T04:31:18.977Z,2.54
2023-12-10T04:31:51.850Z,2.55
2023-12-10T04:32:24.411Z,2.55
2023-12-10T04:32:57.101Z,2.56
2023-12-10T04:33:29.837Z,2.56
2023-12-10T04:34:02.999Z,2.57
2023-12-10T04:34:36.802Z,2.57
2023-12-10T04:35:09.656Z,2.58
2023-12-10T04:35:42.359Z,2.59
2023-12-10T04:36:15.151Z,2.58
2023-12-10T04:36:47.857Z,2.58
2023-12-10T04:37:20.452Z,2.58
2023-12-10T04:37:53.213Z,2.58
2023-12-10T04:38:25.803Z,2.59
2023-12-10T04:38:58.445Z,2.59
2023-12-10T04:39:31.044Z,2.59
2023-12-10T04:40:03.950Z,2.59
2023-12-10T04:40:36.780Z,2.59
2023-12-10T04:41:09.706Z,2.59
2023-12-10T04:41:42.304Z,2.60
2023-12-10T04:42:14.974Z,2.60
2023-12-10T04:42:47.564Z,2.59
2023-12-10T04:43:20.333Z,2.58
2023-12-10T04:43:53.986Z,2.58
2023-12-10T04:44:26.655Z,2.58
2023-12-10T04:44:59.237Z,2.58
2023-12-10T04:45:31.808Z,2.58
2023-12-10T04:46:04.911Z,2.58
2023-12-10T04:46:37.490Z,2.58
2023-12-10T04:47:10.068Z,2.58
2023-12-10T04:47:42.796Z,2.58
2023-12-10T04:48:15.818Z,2.59
2023-12-10T04:48:48.668Z,2.59
2023-12-10T04:49:21.612Z,2.59
2023-12-10T04:49:56.140Z,2.59
2023-12-10T04:50:28.889Z,2.60
2023-12-10T04:51:01.621Z,2.60
2023-12-10T04:51:34.229Z,2.61
2023-12-10T04:52:07.503Z,2.61
2023-12-10T04:52:40.108Z,2.61
2023-12-10T04:53:12.771Z,2.61
2023-12-10T04:53:45.423Z,2.61
2023-12-10T04:54:18.227Z,2.61
2023-12-10T04:54:50.944Z,2.62
2023-12-10T04:55:23.504Z,2.63
2023-12-10T04:55:56.258Z,2.64
2023-12-10T04:56:29.962Z,2.64
2023-12-10T04:57:02.624Z,2.64
2023-12-10T04:57:35.541Z,2.64
2023-12-10T04:58:08.984Z,2.64
2023-12-10T04:58:41.579Z,2.63
2023-12-10T04:59:14.309Z,2.63
2023-12-10T04:59:46.872Z,2.63
2023-12-10T05:00:19.537Z,2.63
2023-12-10T05:00:52.241Z,2.61
2023-12-10T05:01:25.470Z,2.60
2023-12-10T05:01:58.066Z,2.58
2023-12-10T05:02:30.816Z,2.58
2023-12-10T05:03:03.502Z,2.58
2023-12-10T05:03:36.173Z,2.57
2023-12-10T05:04:09.260Z,2.56
2023-12-10T05:04:41.961Z,2.55
2023-12-10T05:05:15.713Z,2.55
2023-12-10T05:05:48.364Z,2.55
2023-12-10T05:06:20.942Z,2.53
2023-12-10T05:06:53.611Z,2.52
2023-12-10T05:07:26.342Z,2.51
2023-12-10T05:07:58.865Z,2.50
2023-12-10T05:08:32.186Z,2.49
2023-12-10T05:09:04.950Z,2.49
2023-12-10T05:09:37.996Z,2.48
2023-12-10T05:10:10.845Z,2.48
2023-12-10T05:10:43.466Z,2.48
2023-12-10T05:11:16.045Z,2.48
2023-12-10T05:11:48.644Z,2.47
2023-12-10T05:12:21.393Z,2.47
2023-12-10T05:12:56.553Z,2.47
2023-12-10T05:13:29.527Z,2.47
2023-12-10T05:14:02.295Z,2.48
2023-12-10T05:14:37.429Z,2.48
2023-12-10T05:15:10.684Z,2.48
2023-12-10T05:15:43.373Z,2.48
2023-12-10T05:16:16.306Z,2.48
2023-12-10T05:16:48.911Z,2.48
2023-12-10T05:17:21.545Z,2.48
2023-12-10T05:17:54.264Z,2.48
2023-12-10T05:18:27.002Z,2.48
2023-12-10T05:18:59.757Z,2.48
2023-12-10T05:19:32.743Z,2.48
2023-12-10T05:20:06.728Z,2.48
2023-12-10T05:20:39.340Z,2.48
2023-12-10T05:21:11.912Z,2.47
2023-12-10T05:21:44.510Z,2.48
2023-12-10T05:22:18.078Z,2.48
2023-12-10T05:22:50.842Z,2.48
2023-12-10T05:23:23.778Z,2.47
2023-12-10T05:23:56.437Z,2.47
2023-12-10T05:24:29.100Z,2.48
2023-12-10T05:25:01.963Z,2.48
2023-12-10T05:25:34.769Z,2.48
2023-12-10T05:26:07.463Z,2.47
2023-12-10T05:26:40.077Z,2.48
2023-12-10T05:27:12.713Z,2.48
2023-12-10T05:27:45.406Z,2.49
2023-12-10T05:28:18.093Z,2.49
2023-12-10T05:28:50.628Z,2.49
2023-12-10T05:29:23.291Z,2.49
2023-12-10T05:29:55.896Z,2.48
2023-12-10T05:30:31.053Z,2.48
2023-12-10T05:31:16.893Z,2.47
2023-12-10T05:31:49.721Z,2.47
2023-12-10T05:32:25.204Z,2.47
2023-12-10T05:32:58.220Z,2.47
2023-12-10T05:33:31.281Z,2.47
2023-12-10T05:34:04.275Z,2.47
2023-12-10T05:34:37.248Z,2.47
2023-12-10T05:35:09.961Z,2.47
2023-12-10T05:35:42.840Z,2.47
2023-12-10T05:36:18.913Z,2.47
2023-12-10T05:36:51.677Z,2.47
2023-12-10T05:37:24.263Z,2.47
2023-12-10T05:37:56.937Z,2.47
2023-12-10T05:38:29.500Z,2.47
2023-12-10T05:39:02.016Z,2.47
2023-12-10T05:39:34.702Z,2.46
2023-12-10T05:40:10.981Z,2.46
2023-12-10T05:40:43.984Z,2.46
2023-12-10T05:41:20.453Z,2.46
2023-12-10T05:41:53.108Z,2.47
2023-12-10T05:42:25.749Z,2.47
2023-12-10T05:42:58.428Z,2.47
2023-12-10T05:43:31.139Z,2.47
2023-12-10T05:44:06.123Z,2.47
2023-12-10T05:44:38.733Z,2.48
2023-12-10T05:45:11.428Z,2.48
2023-12-10T05:45:44.155Z,2.48
2023-12-10T05:46:16.926Z,2.49
2023-12-10T05:46:50.036Z,2.50
2023-12-10T05:47:29.397Z,2.50
2023-12-10T05:48:02.628Z,2.51
2023-12-10T05:48:35.654Z,2.51
2023-12-10T05:49:08.965Z,2.51
2023-12-10T05:49:46.340Z,2.52
2023-12-10T05:50:19.119Z,2.52
2023-12-10T05:50:51.984Z,2.52
2023-12-10T05:51:25.171Z,2.53
2023-12-10T05:51:58.083Z,2.53
2023-12-10T05:52:57.154Z,2.53
2023-12-10T05:53:33.457Z,2.52
2023-12-10T05:54:10.033Z,2.52
2023-12-10T05:54:44.613Z,2.53
2023-12-10T05:55:18.739Z,2.54
2023-12-10T05:55:59.548Z,2.55
2023-12-10T05:56:33.729Z,2.56
2023-12-10T05:57:10.786Z,2.56
2023-12-10T05:57:43.794Z,2.56
2023-12-10T05:58:16.606Z,2.57
2023-12-10T05:58:49.479Z,2.57
2023-12-10T05:59:22.594Z,2.57
2023-12-10T05:59:57.109Z,2.57
2023-12-10T06:00:29.758Z,2.57
2023-12-10T06:01:37.073Z,2.57
2023-12-10T06:02:09.766Z,2.57
2023-12-10T06:02:42.535Z,2.57
2023-12-10T06:03:15.560Z,2.58
2023-12-10T06:03:48.770Z,2.59
2023-12-10T06:04:21.779Z,2.59
2023-12-10T06:04:54.662Z,2.59
2023-12-10T06:05:27.350Z,2.59
2023-12-10T06:06:00.093Z,2.60
2023-12-10T06:06:32.896Z,2.61
2023-12-10T06:07:05.832Z,2.61
2023-12-10T06:07:38.597Z,2.62
2023-12-10T06:08:11.825Z,2.63
2023-12-10T06:08:44.469Z,2.63
2023-12-10T06:09:17.308Z,2.64
2023-12-10T06:09:50.143Z,2.65
2023-12-10T06:10:22.988Z,2.65
2023-12-10T06:10:56.250Z,2.66
2023-12-10T06:11:29.008Z,2.66
2023-12-10T06:12:01.676Z,2.66
2023-12-10T06:12:34.452Z,2.67
2023-12-10T06:13:07.250Z,2.68
2023-12-10T06:13:40.228Z,2.69
2023-12-10T06:14:12.912Z,2.70
2023-12-10T06:15:26.678Z,2.71
2023-12-10T06:16:01.367Z,2.72
2023-12-10T06:16:38.839Z,2.73
2023-12-10T06:17:13.656Z,2.74
2023-12-10T06:17:47.399Z,2.75
2023-12-10T06:18:20.177Z,2.76
2023-12-10T06:18:53.027Z,2.76
2023-12-10T06:19:26.067Z,2.76
2023-12-10T06:19:59.247Z,2.77
2023-12-10T06:20:35.520Z,2.77
2023-12-10T06:21:08.477Z,2.78
2023-12-10T06:21:41.634Z,2.78
2023-12-10T06:22:16.060Z,2.78
2023-12-10T06:22:49.683Z,2.78
2023-12-10T06:23:22.667Z,2.78
2023-12-10T06:23:56.521Z,2.79
2023-12-10T06:24:34.135Z,2.79
2023-12-10T06:25:07.177Z,2.79
2023-12-10T06:25:41.787Z,2.80
2023-12-10T06:26:15.125Z,2.80
2023-12-10T06:26:49.534Z,2.80
2023-12-10T06:27:22.846Z,2.80
2023-12-10T06:28:02.891Z,2.81
2023-12-10T06:28:36.000Z,2.81
2023-12-10T06:29:12.264Z,2.81
2023-12-10T06:29:49.800Z,2.82
2023-12-10T06:30:25.334Z,2.82
2023-12-10T06:31:04.257Z,2.82
2023-12-10T06:31:37.431Z,2.82
2023-12-10T06:32:14.692Z,2.83
2023-12-10T06:32:47.834Z,2.83
2023-12-10T06:33:29.213Z,2.83
2023-12-10T06:34:11.209Z,2.83
2023-12-10T06:34:44.676Z,2.84
2023-12-10T06:35:21.285Z,2.84
2023-12-10T06:36:00.143Z,2.85
2023-12-10T06:36:34.896Z,2.85
2023-12-10T06:37:08.924Z,2.85
2023-12-10T06:37:49.725Z,2.86
2023-12-10T06:38:23.331Z,2.87
2023-12-10T06:38:59.501Z,2.87
2023-12-10T06:39:37.772Z,2.88
2023-12-10T06:40:14.266Z,2.88
2023-12-10T06:40:47.339Z,2.89
2023-12-10T06:41:24.597Z,2.89
2023-12-10T06:43:53.208Z,2.92
2023-12-10T06:44:28.664Z,2.92
2023-12-10T06:45:04.125Z,2.92
2023-12-10T06:45:46.543Z,2.92
2023-12-10T06:46:22.096Z,2.92
2023-12-10T06:47:08.582Z,2.93
2023-12-10T06:47:46.415Z,2.94
2023-12-10T06:49:26.981Z,2.94
2023-12-10T06:50:08.825Z,2.95
2023-12-10T06:50:52.376Z,2.96
2023-12-10T06:51:35.813Z,2.96
2023-12-10T06:52:13.529Z,2.97
2023-12-10T06:53:04.674Z,2.98
2023-12-10T06:53:50.660Z,2.98
2023-12-10T06:54:26.936Z,2.99
2023-12-10T06:55:13.707Z,3.00
2023-12-10T06:56:15.329Z,3.01
2023-12-10T06:57:30.676Z,3.02
2023-12-10T06:58:30.678Z,3.04
2023-12-10T07:01:47.291Z,3.08
2023-12-10T07:02:28.215Z,3.09
2023-12-10T07:03:22.489Z,3.10
2023-12-10T07:04:01.349Z,3.10
2023-12-10T07:04:34.424Z,3.11
2023-12-10T07:05:16.346Z,3.11
2023-12-10T07:05:49.331Z,3.13
2023-12-10T07:06:28.898Z,3.14
2023-12-10T07:07:03.146Z,3.14
2023-12-10T07:07:36.236Z,3.15
2023-12-10T07:08:14.460Z,3.16
2023-12-10T07:08:47.438Z,3.16
2023-12-10T07:09:20.454Z,3.17
2023-12-10T07:09:53.507Z,3.17
2023-12-10T07:10:26.380Z,3.18
2023-12-10T07:10:59.291Z,3.19
2023-12-10T07:11:32.473Z,3.20
2023-12-10T07:12:05.377Z,3.21
2023-12-10T07:12:38.048Z,3.21
2023-12-10T07:13:11.666Z,3.21
2023-12-10T07:13:44.358Z,3.22
2023-12-10T07:14:17.018Z,3.22
2023-12-10T07:14:51.519Z,3.23
2023-12-10T07:15:24.380Z,3.23
2023-12-10T07:15:57.470Z,3.23
2023-12-10T07:16:30.116Z,3.24
2023-12-10T07:17:03.121Z,3.24
2023-12-10T07:17:37.442Z,3.24
2023-12-10T07:18:10.230Z,3.24
2023-12-10T07:18:43.510Z,3.25
2023-12-10T07:19:16.301Z,3.25
2023-12-10T07:19:49.062Z,3.25
2023-12-10T07:20:21.681Z,3.25
2023-12-10T07:20:54.257Z,3.26
2023-12-10T07:21:26.836Z,3.26
2023-12-10T07:21:59.595Z,3.26
2023-12-10T07:22:32.788Z,3.27
2023-12-10T07:23:05.605Z,3.27
2023-12-10T07:23:38.275Z,3.28
2023-12-10T07:24:10.838Z,3.28
2023-12-10T07:24:43.466Z,3.28
2023-12-10T07:25:16.098Z,3.28
2023-12-10T07:25:48.621Z,3.29
2023-12-10T07:26:25.088Z,3.29
2023-12-10T07:26:58.141Z,3.29
2023-12-10T07:27:30.712Z,3.30
2023-12-10T07:28:04.262Z,3.30
2023-12-10T07:28:37.081Z,3.30
2023-12-10T07:29:09.714Z,3.31
2023-12-10T07:29:42.274Z,3.31
2023-12-10T07:30:15.011Z,3.31
2023-12-10T07:30:47.732Z,3.32
2023-12-10T07:31:20.577Z,3.32
2023-12-10T07:31:53.106Z,3.33
2023-12-10T07:32:26.307Z,3.34
2023-12-10T07:32:58.922Z,3.34
2023-12-10T07:33:31.617Z,3.35
2023-12-10T07:34:04.306Z,3.35
2023-12-10T07:34:36.916Z,3.36
2023-12-10T07:35:09.471Z,3.36
2023-12-10T07:35:42.354Z,3.36